createdAt,value
2022-09-28T00:00:40.592Z,96993.80
2022-09-28T00:03:29.884Z,96986.88
2022-09-28T00:06:03.340Z,96986.52
2022-09-28T00:08:32.246Z,96984.52
2022-09-28T00:11:02.415Z,96983.98
2022-09-28T00:13:32.923Z,96986.48
2022-09-28T00:16:07.479Z,96980.58
2022-09-28T00:18:37.879Z,96978.84
2022-09-28T00:21:08.285Z,96976.77
2022-09-28T00:23:59.352Z,96978.64
2022-09-28T00:26:28.541Z,96974.85
2022-09-28T00:29:00.047Z,96971.45
2022-09-28T00:31:32.059Z,96969.60
2022-09-28T00:34:05.552Z,96972.13
2022-09-28T00:36:35.365Z,96971.52
2022-09-28T00:39:07.791Z,96974.55
2022-09-28T00:41:36.963Z,96972.25
2022-09-28T00:44:37.123Z,96972.82
2022-09-28T00:47:15.315Z,96969.92
2022-09-28T00:49:45.933Z,96968.20
2022-09-28T00:52:18.324Z,96967.67
2022-09-28T00:54:50.443Z,96973.98
2022-09-28T00:57:20.396Z,96971.81
2022-09-28T00:59:51.893Z,96970.41
2022-09-28T01:02:21.867Z,96972.42
2022-09-28T01:04:52.539Z,96975.15
2022-09-28T01:07:23.522Z,96974.04
2022-09-28T01:09:53.977Z,96974.67
2022-09-28T01:12:23.365Z,96975.27
2022-09-28T01:14:54.189Z,96979.75
2022-09-28T01:17:31.087Z,96980.11
2022-09-28T01:20:40.824Z,96979.17
2022-09-28T01:23:40.658Z,96979.91
2022-09-28T01:26:42.717Z,96983.41
2022-09-28T01:29:18.983Z,96982.34
2022-09-28T01:31:51.291Z,96982.52
2022-09-28T01:34:25.870Z,96979.61
2022-09-28T01:36:58.601Z,96976.88
2022-09-28T01:39:32.682Z,96981.20
2022-09-28T01:42:05.793Z,96983.65
2022-09-28T01:44:39.312Z,96982.94
2022-09-28T01:47:12.635Z,96989.96
2022-09-28T01:49:45.129Z,96985.78
2022-09-28T01:52:18.189Z,96984.75
2022-09-28T01:54:51.669Z,96975.88
2022-09-28T01:57:25.116Z,96976.41
2022-09-28T02:00:01.958Z,96978.94
2022-09-28T02:02:34.978Z,96987.10
2022-09-28T02:05:06.954Z,96991.25
2022-09-28T02:07:39.794Z,96997.39
2022-09-28T02:10:15.369Z,96995.07
2022-09-28T02:12:46.984Z,96995.04
2022-09-28T02:15:20.103Z,96995.10
2022-09-28T02:17:49.230Z,96996.79
2022-09-28T02:20:18.790Z,97001.45
2022-09-28T02:22:50.973Z,96998.66
2022-09-28T02:25:26.196Z,96994.15
2022-09-28T02:27:57.001Z,96990.96
2022-09-28T02:30:25.617Z,96988.70
2022-09-28T02:33:01.208Z,96986.56
2022-09-28T02:35:29.871Z,96983.98
2022-09-28T02:37:58.366Z,96980.33
2022-09-28T02:40:31.844Z,96982.32
2022-09-28T02:43:09.544Z,96981.93
2022-09-28T02:45:59.827Z,96980.02
2022-09-28T02:48:52.235Z,96983.02
2022-09-28T02:51:32.361Z,96985.72
2022-09-28T02:54:18.911Z,96983.98
2022-09-28T02:56:55.484Z,96983.84
2022-09-28T03:03:31.054Z,96993.30
2022-09-28T03:06:03.654Z,96989.31
2022-09-28T03:08:35.821Z,96992.73
2022-09-28T03:11:11.049Z,96987.65
2022-09-28T03:13:43.068Z,96979.91
2022-09-28T03:16:14.616Z,96982.07
2022-09-28T03:18:45.349Z,96986.08
2022-09-28T03:21:15.412Z,96992.65
2022-09-28T03:23:43.958Z,96996.09
2022-09-28T03:26:12.849Z,97002.67
2022-09-28T03:28:43.567Z,97006.97
2022-09-28T03:31:12.835Z,97002.45
2022-09-28T03:33:42.296Z,97006.88
2022-09-28T03:36:11.235Z,97014.09
2022-09-28T03:38:40.126Z,97007.64
2022-09-28T03:41:09.231Z,97001.66
2022-09-28T03:43:37.611Z,97005.88
2022-09-28T03:46:07.563Z,97008.71
2022-09-28T03:48:36.983Z,97013.30
2022-09-28T03:51:08.612Z,97013.48
2022-09-28T03:53:39.448Z,97010.95
2022-09-28T03:56:12.660Z,97011.48
2022-09-28T03:58:42.816Z,97018.38
2022-09-28T04:01:17.948Z,97015.64
2022-09-28T04:03:53.080Z,97022.35
2022-09-28T04:06:22.860Z,97017.89
2022-09-28T04:08:54.202Z,97017.90
2022-09-28T04:11:25.417Z,97017.26
2022-09-28T04:13:53.938Z,97021.71
2022-09-28T04:16:23.025Z,97021.67
2022-09-28T04:18:52.226Z,97024.98
2022-09-28T04:21:21.966Z,97021.30
2022-09-28T04:23:50.431Z,97018.02
2022-09-28T04:26:21.375Z,97012.51
2022-09-28T04:29:09.281Z,97011.80
2022-09-28T04:31:42.503Z,97013.70
2022-09-28T04:34:11.901Z,97010.20
2022-09-28T04:36:42.021Z,97007.27
2022-09-28T04:39:11.928Z,97005.36
2022-09-28T04:41:40.394Z,97010.30
2022-09-28T04:44:09.900Z,97011.20
2022-09-28T04:46:40.743Z,97013.12
2022-09-28T04:49:11.467Z,97017.14
2022-09-28T04:51:42.290Z,97014.80
2022-09-28T04:54:15.606Z,97017.35
2022-09-28T04:56:45.440Z,97014.96
2022-09-28T04:59:14.100Z,97014.52
2022-09-28T05:01:45.111Z,97017.88
2022-09-28T05:04:16.981Z,97017.31
2022-09-28T05:06:45.693Z,97010.56
2022-09-28T05:09:14.716Z,97008.27
2022-09-28T05:11:43.853Z,97009.55
2022-09-28T05:14:15.928Z,97011.57
2022-09-28T05:16:47.158Z,97011.75
2022-09-28T05:19:16.066Z,97010.52
2022-09-28T05:21:48.211Z,97005.98
2022-09-28T05:24:17.694Z,97007.45
2022-09-28T05:26:47.975Z,97008.72
2022-09-28T05:29:18.153Z,97007.77
2022-09-28T05:31:47.378Z,97006.13
2022-09-28T05:34:17.521Z,97010.13
2022-09-28T05:36:46.791Z,97009.65
2022-09-28T05:39:17.176Z,97013.98
2022-09-28T05:41:45.696Z,97014.55
2022-09-28T05:44:16.585Z,97014.30
2022-09-28T05:46:46.297Z,97021.16
2022-09-28T05:49:15.585Z,97018.05
2022-09-28T05:51:44.237Z,97020.52
2022-09-28T05:54:14.784Z,97019.86
2022-09-28T05:56:44.509Z,97015.56
2022-09-28T05:59:13.907Z,97019.39
2022-09-28T06:01:43.115Z,97019.06
2022-09-28T06:04:12.179Z,97018.32
2022-09-28T06:06:40.755Z,97019.43
2022-09-28T06:09:11.222Z,97022.14
2022-09-28T06:11:41.244Z,97021.16
2022-09-28T06:14:13.012Z,97017.91
2022-09-28T06:16:43.973Z,97016.17
2022-09-28T06:19:13.137Z,97015.15
2022-09-28T06:21:42.530Z,97019.36
2022-09-28T06:24:11.780Z,97017.91
2022-09-28T06:26:41.863Z,97019.98
2022-09-28T06:29:18.680Z,97013.59
2022-09-28T06:31:48.299Z,97009.54
2022-09-28T06:34:19.355Z,97002.55
2022-09-28T06:36:49.568Z,96998.23
2022-09-28T06:39:18.949Z,96996.91
2022-09-28T06:41:47.556Z,96994.55
2022-09-28T06:44:19.397Z,96992.15
2022-09-28T06:46:47.867Z,96993.40
2022-09-28T06:49:19.445Z,96997.56
2022-09-28T06:51:50.605Z,96999.27
2022-09-28T06:54:25.016Z,96999.98
2022-09-28T06:56:53.740Z,97000.84
2022-09-28T06:59:22.400Z,97002.84
2022-09-28T07:01:53.175Z,97004.52
2022-09-28T07:04:22.842Z,97004.48
2022-09-28T07:06:54.410Z,97003.72
2022-09-28T07:09:32.370Z,97003.12
2022-09-28T07:12:04.461Z,97006.41
2022-09-28T07:14:47.352Z,97006.48
2022-09-28T07:17:18.180Z,97000.96
2022-09-28T07:19:52.314Z,97007.39
2022-09-28T07:22:35.443Z,97011.33
2022-09-28T07:25:09.599Z,97003.27
2022-09-28T07:27:39.175Z,97003.05
2022-09-28T07:30:10.787Z,97000.86
2022-09-28T07:32:39.653Z,96997.58
2022-09-28T07:35:10.177Z,96998.81
2022-09-28T07:37:39.856Z,97000.77
2022-09-28T07:40:30.124Z,97001.75
2022-09-28T07:43:05.563Z,97003.08
2022-09-28T07:45:36.435Z,96996.63
2022-09-28T07:48:06.380Z,96994.66
2022-09-28T07:50:36.160Z,96994.77
2022-09-28T07:53:06.186Z,96991.48
2022-09-28T07:55:35.614Z,96992.84
2022-09-28T07:58:04.834Z,96990.84
2022-09-28T08:00:34.518Z,96995.77
2022-09-28T08:03:05.521Z,96998.55
2022-09-28T08:05:35.375Z,96995.89
2022-09-28T08:08:05.447Z,96999.25
2022-09-28T08:10:35.154Z,96998.36
2022-09-28T08:13:08.687Z,96997.23
2022-09-28T08:15:38.726Z,96987.94
2022-09-28T08:18:07.836Z,96991.26
2022-09-28T08:21:07.947Z,96988.58
2022-09-28T08:23:38.880Z,96990.38
2022-09-28T08:26:10.984Z,96989.80
2022-09-28T08:28:43.096Z,96987.05
2022-09-28T08:31:11.991Z,96990.42
2022-09-28T08:33:42.413Z,96991.77
2022-09-28T08:36:13.828Z,96990.48
2022-09-28T08:38:43.345Z,96990.80
2022-09-28T08:41:18.916Z,96984.86
2022-09-28T08:43:57.093Z,96982.52
2022-09-28T08:46:32.160Z,96977.77
2022-09-28T08:49:24.934Z,96976.16
2022-09-28T08:52:00.398Z,96977.15
2022-09-28T08:54:38.558Z,96976.31
2022-09-28T08:57:10.444Z,96981.65
2022-09-28T08:59:45.546Z,96985.13
2022-09-28T09:02:17.855Z,96987.96
2022-09-28T09:04:47.983Z,96986.54
2022-09-28T09:07:46.877Z,96982.02
2022-09-28T09:10:28.169Z,96969.93
2022-09-28T09:13:04.309Z,96968.56
2022-09-28T09:15:42.752Z,96972.50
2022-09-28T09:18:22.280Z,96974.29
2022-09-28T09:20:56.120Z,96971.87
2022-09-28T09:23:34.171Z,96974.93
2022-09-28T09:26:09.470Z,96978.78
2022-09-28T09:29:03.614Z,96988.49
2022-09-28T09:31:42.068Z,96990.16
2022-09-28T09:34:25.510Z,96988.70
2022-09-28T09:37:09.299Z,96986.50
2022-09-28T09:39:46.509Z,96986.38
2022-09-28T09:42:27.571Z,96991.60
2022-09-28T09:45:18.689Z,96987.98
2022-09-28T09:47:50.872Z,96985.98
2022-09-28T09:50:30.262Z,96986.48
2022-09-28T09:53:02.911Z,96986.05
2022-09-28T09:55:36.529Z,96983.73
2022-09-28T09:58:12.722Z,96979.39
2022-09-28T10:00:44.272Z,96980.65
2022-09-28T10:03:19.843Z,96976.66
2022-09-28T10:05:53.821Z,96967.21
2022-09-28T10:08:23.614Z,96969.61
2022-09-28T10:10:56.356Z,96965.41
2022-09-28T10:13:24.988Z,96964.05
2022-09-28T10:15:55.673Z,96965.55
2022-09-28T10:18:24.979Z,96968.91
2022-09-28T10:20:53.867Z,96968.96
2022-09-28T10:23:25.921Z,96958.66
2022-09-28T10:25:57.012Z,96959.95
2022-09-28T10:28:33.209Z,96953.20
2022-09-28T10:31:03.286Z,96956.81
2022-09-28T10:33:34.949Z,96960.80
2022-09-28T10:36:07.976Z,96958.19
2022-09-28T10:38:37.170Z,96946.16
2022-09-28T10:41:12.804Z,96943.38
2022-09-28T10:44:07.595Z,96942.20
2022-09-28T10:46:39.496Z,96940.14
2022-09-28T10:49:14.929Z,96945.09
2022-09-28T10:51:46.203Z,96933.80
2022-09-28T10:54:18.244Z,96922.11
2022-09-28T10:56:48.462Z,96917.67
2022-09-28T10:59:37.118Z,96917.55
2022-09-28T11:02:21.307Z,96911.27
2022-09-28T11:04:55.005Z,96906.08
2022-09-28T11:07:26.353Z,96902.36
2022-09-28T11:09:56.085Z,96900.70
2022-09-28T11:12:27.379Z,96901.71
2022-09-28T11:15:02.445Z,96895.83
2022-09-28T11:17:38.244Z,96887.93
2022-09-28T11:20:29.241Z,96891.52
2022-09-28T11:22:59.708Z,96890.77
2022-09-28T11:25:30.685Z,96887.44
2022-09-28T11:28:03.923Z,96886.14
2022-09-28T11:30:37.989Z,96880.36
2022-09-28T11:33:11.495Z,96872.31
2022-09-28T11:35:46.513Z,96870.79
2022-09-28T11:38:33.572Z,96869.12
2022-09-28T11:41:14.780Z,96877.23
2022-09-28T11:44:02.873Z,96873.88
2022-09-28T11:46:38.010Z,96871.55
2022-09-28T11:49:15.003Z,96873.33
2022-09-28T11:51:45.327Z,96864.98
2022-09-28T11:54:19.514Z,96861.25
2022-09-28T11:56:52.910Z,96859.52
2022-09-28T11:59:27.107Z,96855.34
2022-09-28T12:01:57.925Z,96848.41
2022-09-28T12:04:34.314Z,96836.08
2022-09-28T12:07:06.783Z,96839.66
2022-09-28T12:09:38.207Z,96839.38
2022-09-28T12:12:15.661Z,96836.16
2022-09-28T12:14:46.360Z,96841.72
2022-09-28T12:17:21.569Z,96846.05
2022-09-28T12:19:54.866Z,96847.15
2022-09-28T12:22:28.972Z,96844.95
2022-09-28T12:24:58.311Z,96846.89
2022-09-28T12:27:32.819Z,96845.98
2022-09-28T12:30:05.319Z,96846.20
2022-09-28T12:32:38.274Z,96851.02
2022-09-28T12:35:15.594Z,96846.29
2022-09-28T12:38:24.316Z,96846.25
2022-09-28T12:40:59.271Z,96841.38
2022-09-28T12:43:55.785Z,96838.23
2022-09-28T12:46:39.110Z,96833.09
2022-09-28T12:52:29.370Z,96828.83
2022-09-28T12:55:19.629Z,96825.27
2022-09-28T12:57:57.676Z,96827.21
2022-09-28T13:00:29.398Z,96820.98
2022-09-28T13:03:26.431Z,96824.11
2022-09-28T13:06:24.068Z,96819.48
2022-09-28T13:09:05.146Z,96819.76
2022-09-28T13:11:43.486Z,96812.69
2022-09-28T13:14:28.864Z,96816.60
2022-09-28T13:17:02.774Z,96813.52
2022-09-28T13:19:40.732Z,96811.95
2022-09-28T13:22:20.454Z,96809.77
2022-09-28T13:24:51.732Z,96806.13
2022-09-28T13:27:28.796Z,96806.77
2022-09-28T13:30:02.753Z,96807.55
2022-09-28T13:32:32.215Z,96812.92
2022-09-28T13:35:02.784Z,96819.09
2022-09-28T13:37:33.899Z,96815.92
2022-09-28T13:40:05.527Z,96820.32
2022-09-28T13:43:10.558Z,96817.66
2022-09-28T13:45:50.750Z,96810.36
2022-09-28T13:48:22.371Z,96811.55
2022-09-28T13:51:03.996Z,96810.23
2022-09-28T13:53:43.258Z,96805.27
2022-09-28T13:56:24.291Z,96807.24
2022-09-28T13:58:55.862Z,96799.31
2022-09-28T14:01:29.113Z,96797.27
2022-09-28T14:04:13.304Z,96793.52
2022-09-28T14:06:48.141Z,96787.91
2022-09-28T14:09:42.001Z,96788.89
2022-09-28T14:12:45.841Z,96784.96
2022-09-28T14:15:41.433Z,96783.08
2022-09-28T14:18:23.608Z,96771.67
2022-09-28T14:21:21.150Z,96772.79
2022-09-28T14:24:10.819Z,96769.24
2022-09-28T14:27:03.051Z,96772.30
2022-09-28T14:29:37.195Z,96765.34
2022-09-28T14:32:22.904Z,96767.52
2022-09-28T14:34:59.819Z,96763.46
2022-09-28T14:37:50.746Z,96761.25
2022-09-28T14:40:52.011Z,96759.46
2022-09-28T14:43:24.766Z,96758.20
2022-09-28T14:46:36.997Z,96756.61
2022-09-28T14:49:48.172Z,96755.73
2022-09-28T14:52:42.229Z,96759.88
2022-09-28T14:55:26.678Z,96752.23
2022-09-28T14:57:58.650Z,96752.31
2022-09-28T15:00:31.445Z,96751.09
2022-09-28T15:03:02.632Z,96747.63
2022-09-28T15:05:38.247Z,96745.74
2022-09-28T15:08:08.105Z,96744.42
2022-09-28T15:10:42.000Z,96741.45
2022-09-28T15:13:20.818Z,96741.62
2022-09-28T15:15:53.444Z,96741.91
2022-09-28T15:18:43.680Z,96746.27
2022-09-28T15:21:13.890Z,96748.33
2022-09-28T15:23:47.124Z,96752.36
2022-09-28T15:26:27.026Z,96749.70
2022-09-28T15:28:56.591Z,96753.65
2022-09-28T15:31:27.442Z,96751.27
2022-09-28T15:34:15.691Z,96761.13
2022-09-28T15:36:46.356Z,96759.09
2022-09-28T15:39:18.906Z,96750.71
2022-09-28T15:41:50.511Z,96754.11
2022-09-28T15:44:29.153Z,96751.67
2022-09-28T15:47:10.589Z,96754.46
2022-09-28T15:49:44.744Z,96764.70
2022-09-28T15:52:37.119Z,96773.84
2022-09-28T15:55:19.927Z,96786.27
2022-09-28T15:57:50.855Z,96801.38
2022-09-28T16:00:28.571Z,96815.10
2022-09-28T16:03:21.860Z,96822.20
2022-09-28T16:05:51.628Z,96822.85
2022-09-28T16:08:24.032Z,96801.16
2022-09-28T16:10:57.140Z,96794.60
2022-09-28T16:13:26.841Z,96807.91
2022-09-28T16:15:59.206Z,96821.36
2022-09-28T16:18:29.896Z,96811.52
2022-09-28T16:21:23.804Z,96797.06
2022-09-28T16:23:55.040Z,96798.38
2022-09-28T16:26:31.800Z,96809.16
2022-09-28T16:29:02.934Z,96814.25
2022-09-28T16:31:36.587Z,96810.23
2022-09-28T16:34:21.611Z,96808.45
2022-09-28T16:36:52.252Z,96807.27
2022-09-28T16:39:23.110Z,96806.81
2022-09-28T16:41:54.764Z,96807.20
2022-09-28T16:44:27.997Z,96811.11
2022-09-28T16:47:01.060Z,96808.65
2022-09-28T16:49:35.304Z,96804.13
2022-09-28T16:52:11.194Z,96801.86
2022-09-28T16:55:07.445Z,96791.42
2022-09-28T16:57:49.655Z,96789.73
2022-09-28T17:00:24.906Z,96793.06
2022-09-28T17:02:55.592Z,96794.87
2022-09-28T17:05:25.317Z,96803.09
2022-09-28T17:08:02.657Z,96806.11
2022-09-28T17:10:50.125Z,96812.10
2022-09-28T17:13:30.845Z,96815.30
2022-09-28T17:16:01.915Z,96816.42
2022-09-28T17:18:32.499Z,96818.13
2022-09-28T17:21:05.253Z,96823.06
2022-09-28T17:23:35.210Z,96828.04
2022-09-28T17:26:06.323Z,96832.90
2022-09-28T17:28:38.299Z,96836.09
2022-09-28T17:31:15.537Z,96836.73
2022-09-28T17:33:45.579Z,96833.54
2022-09-28T17:36:17.336Z,96836.29
2022-09-28T17:38:51.114Z,96833.55
2022-09-28T17:41:21.832Z,96833.79
2022-09-28T17:43:51.796Z,96838.47
2022-09-28T17:46:27.102Z,96843.05
2022-09-28T17:49:00.409Z,96848.45
2022-09-28T17:51:31.691Z,96855.83
2022-09-28T17:54:01.204Z,96858.67
2022-09-28T17:56:32.618Z,96861.34
2022-09-28T17:59:06.408Z,96864.59
2022-09-28T18:01:39.784Z,96865.30
2022-09-28T18:04:23.029Z,96872.55
2022-09-28T18:06:58.740Z,96893.46
2022-09-28T18:09:29.975Z,96889.33
2022-09-28T18:12:06.140Z,96881.69
2022-09-28T18:14:38.518Z,96886.63
2022-09-28T18:17:08.203Z,96879.31
2022-09-28T18:19:38.654Z,96890.09
2022-09-28T18:22:07.548Z,96885.23
2022-09-28T18:24:39.225Z,96881.38
2022-09-28T18:27:09.520Z,96887.98
2022-09-28T18:29:39.922Z,96903.83
2022-09-28T18:32:11.039Z,96907.34
2022-09-28T18:34:41.165Z,96909.48
2022-09-28T18:37:11.461Z,96915.02
2022-09-28T18:39:41.779Z,96904.56
2022-09-28T18:42:11.657Z,96896.60
2022-09-28T18:44:41.484Z,96890.90
2022-09-28T18:47:13.063Z,96896.48
2022-09-28T18:49:46.587Z,96905.92
2022-09-28T18:52:16.477Z,96899.77
2022-09-28T18:54:46.588Z,96906.77
2022-09-28T18:57:17.354Z,96911.72
2022-09-28T18:59:48.365Z,96917.93
2022-09-28T19:02:19.722Z,96924.64
2022-09-28T19:04:48.576Z,96920.02
2022-09-28T19:07:20.979Z,96920.92
2022-09-28T19:09:53.031Z,96932.48
2022-09-28T19:12:21.800Z,96930.27
2022-09-28T19:14:51.425Z,96929.19
2022-09-28T19:17:22.575Z,96932.04
2022-09-28T19:19:55.358Z,96928.14
2022-09-28T19:22:25.065Z,96923.88
2022-09-28T19:24:56.684Z,96929.57
2022-09-28T19:27:29.828Z,96924.82
2022-09-28T19:29:59.297Z,96925.45
2022-09-28T19:32:32.554Z,96925.45
2022-09-28T19:35:04.868Z,96934.66
2022-09-28T19:37:36.386Z,96938.05
2022-09-28T19:40:10.050Z,96941.50
2022-09-28T19:42:39.537Z,96945.54
2022-09-28T19:45:11.198Z,96942.86
2022-09-28T19:47:40.276Z,96951.06
2022-09-28T19:50:10.834Z,96953.92
2022-09-28T19:52:41.024Z,96948.58
2022-09-28T19:55:10.462Z,96953.92
2022-09-28T19:57:39.080Z,96955.28
2022-09-28T20:00:13.492Z,96961.54
2022-09-28T20:02:43.233Z,96964.35
2022-09-28T20:05:13.303Z,96961.41
2022-09-28T20:07:42.337Z,96962.09
2022-09-28T20:10:12.158Z,96966.56
2022-09-28T20:12:47.162Z,96966.64
2022-09-28T20:15:16.943Z,96964.02
2022-09-28T20:17:45.620Z,96961.10
2022-09-28T20:20:14.447Z,96966.60
2022-09-28T20:22:44.439Z,96970.94
2022-09-28T20:25:14.336Z,96980.58
2022-09-28T20:27:43.142Z,96991.52
2022-09-28T20:30:14.672Z,96989.27
2022-09-28T20:32:49.431Z,96991.77
2022-09-28T20:35:32.325Z,96995.72
2022-09-28T20:38:08.819Z,97003.50
2022-09-28T20:40:41.391Z,97007.73
2022-09-28T20:43:11.991Z,97008.27
2022-09-28T20:45:43.524Z,97002.84
2022-09-28T20:48:14.897Z,97000.98
2022-09-28T20:50:44.519Z,96997.16
2022-09-28T20:53:14.017Z,96999.17
2022-09-28T20:55:44.011Z,97007.21
2022-09-28T20:58:13.890Z,97013.02
2022-09-28T21:00:42.554Z,97020.80
2022-09-28T21:03:12.478Z,97019.30
2022-09-28T21:05:41.989Z,97006.93
2022-09-28T21:08:14.129Z,97005.36
2022-09-28T21:10:47.749Z,97016.45
2022-09-28T21:13:17.709Z,97023.98
2022-09-28T21:15:46.366Z,97032.70
2022-09-28T21:18:17.578Z,97035.87
2022-09-28T21:20:48.389Z,97041.08
2022-09-28T21:23:23.953Z,97047.40
2022-09-28T21:26:03.550Z,97051.86
2022-09-28T21:28:33.998Z,97054.00
2022-09-28T21:31:05.478Z,97050.23
2022-09-28T21:33:35.122Z,97042.65
2022-09-28T21:36:07.085Z,97040.30
2022-09-28T21:38:36.088Z,97045.05
2022-09-28T21:41:06.078Z,97041.02
2022-09-28T21:43:34.734Z,97038.77
2022-09-28T21:46:05.880Z,97038.23
2022-09-28T21:48:34.734Z,97054.55
2022-09-28T21:51:07.337Z,97067.99
2022-09-28T21:53:37.786Z,97075.81
2022-09-28T21:56:10.306Z,97075.48
2022-09-28T21:58:39.761Z,97073.55
2022-09-28T22:01:16.149Z,97075.79
2022-09-28T22:03:48.293Z,97076.40
2022-09-28T22:06:20.908Z,97077.21
2022-09-28T22:08:50.181Z,97077.90
2022-09-28T22:11:22.397Z,97071.65
2022-09-28T22:13:53.736Z,97070.30
2022-09-28T22:16:24.791Z,97066.91
2022-09-28T22:18:54.403Z,97072.87
2022-09-28T22:21:24.226Z,97075.98
2022-09-28T22:23:54.378Z,97078.40
2022-09-28T22:26:24.226Z,97083.08
2022-09-28T22:28:55.709Z,97086.59
2022-09-28T22:31:26.713Z,97091.60
2022-09-28T22:33:55.837Z,97095.02
2022-09-28T22:36:27.623Z,97101.98
2022-09-28T22:38:58.721Z,97104.69
2022-09-28T22:41:29.537Z,97102.78
2022-09-28T22:43:59.737Z,97104.31
2022-09-28T22:46:32.440Z,97105.66
2022-09-28T22:49:02.798Z,97109.44
2022-09-28T22:51:32.065Z,97113.02
2022-09-28T22:54:03.666Z,97117.58
2022-09-28T22:56:33.473Z,97116.98
2022-09-28T22:59:04.209Z,97118.94
2022-09-28T23:01:36.105Z,97117.83
2022-09-28T23:04:05.707Z,97117.44
2022-09-28T23:06:35.623Z,97120.73
2022-09-28T23:09:06.814Z,97120.55
2022-09-28T23:11:35.976Z,97122.29
2022-09-28T23:14:07.053Z,97127.73
2022-09-28T23:16:35.423Z,97130.38
2022-09-28T23:19:06.564Z,97133.66
2022-09-28T23:21:36.793Z,97137.50
2022-09-28T23:24:06.289Z,97129.10
2022-09-28T23:26:36.353Z,97125.14
2022-09-28T23:29:06.227Z,97127.21
2022-09-28T23:31:36.225Z,97121.52
2022-09-28T23:34:06.908Z,97118.20
2022-09-28T23:36:36.274Z,97112.14
2022-09-28T23:39:09.004Z,97113.75
2022-09-28T23:41:40.310Z,97107.00
2022-09-28T23:44:08.765Z,97109.24
2022-09-28T23:46:39.086Z,97119.50
2022-09-28T23:49:08.723Z,97129.13
2022-09-28T23:51:38.823Z,97131.22
2022-09-28T23:54:08.558Z,97132.61
2022-09-28T23:56:39.714Z,97136.00
2022-09-28T23:59:13.397Z,97140.81
